createdAt,value
2022-12-14T00:01:41.149Z,46.22
2022-12-14T00:04:07.915Z,43.78
2022-12-14T00:06:35.037Z,38.53
2022-12-14T00:09:04.003Z,44.90
2022-12-14T00:11:32.260Z,45.08
2022-12-14T00:14:01.493Z,40.05
2022-12-14T00:16:30.927Z,43.05
2022-12-14T00:18:59.699Z,44.03
2022-12-14T00:21:28.766Z,48.42
2022-12-14T00:23:57.514Z,42.67
2022-12-14T00:26:26.463Z,45.40
2022-12-14T00:28:54.954Z,46.92
2022-12-14T00:31:22.962Z,41.28
2022-12-14T00:33:51.683Z,45.97
2022-12-14T00:36:19.258Z,43.42
2022-12-14T00:38:46.394Z,42.33
2022-12-14T00:41:13.177Z,44.65
2022-12-14T00:43:39.966Z,45.30
2022-12-14T00:46:07.367Z,41.60
2022-12-14T00:48:34.442Z,43.35
2022-12-14T00:51:01.402Z,43.20
2022-12-14T00:53:28.144Z,43.75
2022-12-14T00:55:54.893Z,42.13
2022-12-14T00:58:23.748Z,40.40
2022-12-14T01:01:04.658Z,41.03
2022-12-14T01:03:32.007Z,45.50
2022-12-14T01:05:59.164Z,42.80
2022-12-14T01:08:26.203Z,42.15
2022-12-14T01:10:53.781Z,42.10
2022-12-14T01:13:20.467Z,48.03
2022-12-14T01:15:48.671Z,42.40
2022-12-14T01:18:15.552Z,43.22
2022-12-14T01:20:42.230Z,40.97
2022-12-14T01:23:09.551Z,38.20
2022-12-14T01:25:36.579Z,40.65
2022-12-14T01:28:03.321Z,38.47
2022-12-14T01:30:31.092Z,38.95
2022-12-14T01:32:57.779Z,41.88
2022-12-14T01:35:24.500Z,38.33
2022-12-14T01:37:53.196Z,41.80
2022-12-14T01:40:22.839Z,36.33
2022-12-14T01:42:49.461Z,39.22
2022-12-14T01:45:21.689Z,39.03
2022-12-14T01:47:54.628Z,39.80
2022-12-14T01:50:24.453Z,39.90
2022-12-14T01:52:55.773Z,39.47
2022-12-14T01:55:33.764Z,45.38
2022-12-14T01:58:07.192Z,37.72
2022-12-14T02:00:35.264Z,36.22
2022-12-14T02:03:20.042Z,40.85
2022-12-14T02:05:54.599Z,38.08
2022-12-14T02:08:23.415Z,36.50
2022-12-14T02:10:51.884Z,36.67
2022-12-14T02:13:29.601Z,35.90
2022-12-14T02:15:56.709Z,38.25
2022-12-14T02:18:43.538Z,38.25
2022-12-14T02:21:35.351Z,35.88
2022-12-14T02:24:08.358Z,35.95
2022-12-14T02:27:12.497Z,38.00
2022-12-14T02:32:32.410Z,36.13
2022-12-14T02:35:19.442Z,35.42
2022-12-14T02:38:06.231Z,36.50
2022-12-14T02:40:42.188Z,33.40
2022-12-14T02:43:38.460Z,31.70
2022-12-14T02:46:23.825Z,34.97
2022-12-14T02:49:14.083Z,33.05
2022-12-14T02:52:03.593Z,32.92
2022-12-14T02:55:03.774Z,32.80
2022-12-14T02:57:48.891Z,34.53
2022-12-14T03:00:16.289Z,33.03
2022-12-14T03:02:45.733Z,33.70
2022-12-14T03:05:12.792Z,33.92
2022-12-14T03:07:58.860Z,35.00
2022-12-14T03:10:34.526Z,30.77
2022-12-14T03:13:34.812Z,33.38
2022-12-14T03:16:13.514Z,37.45
2022-12-14T03:18:54.817Z,32.72
2022-12-14T03:21:28.703Z,33.80
2022-12-14T03:23:57.499Z,34.67
2022-12-14T03:26:38.388Z,35.53
2022-12-14T03:29:21.654Z,32.67
2022-12-14T03:31:56.670Z,31.65
2022-12-14T03:34:31.953Z,35.08
2022-12-14T03:37:17.462Z,30.67
2022-12-14T03:39:45.685Z,35.35
2022-12-14T03:42:20.913Z,33.30
2022-12-14T03:45:03.534Z,36.08
2022-12-14T03:47:45.317Z,30.97
2022-12-14T03:50:16.403Z,36.30
2022-12-14T03:53:06.597Z,31.92
2022-12-14T03:56:11.196Z,39.00
2022-12-14T03:58:41.011Z,35.65
2022-12-14T04:01:19.173Z,34.67
2022-12-14T04:04:07.056Z,34.38
2022-12-14T04:06:36.542Z,36.70
2022-12-14T04:09:35.167Z,39.60
2022-12-14T04:12:35.607Z,36.92
2022-12-14T04:15:30.296Z,34.85
2022-12-14T04:18:21.406Z,30.58
2022-12-14T04:21:10.779Z,37.38
2022-12-14T04:24:04.915Z,35.05
2022-12-14T04:26:40.581Z,36.30
2022-12-14T04:29:33.560Z,36.38
2022-12-14T04:32:15.508Z,32.97
2022-12-14T04:34:45.573Z,33.30
2022-12-14T04:37:16.884Z,34.85
2022-12-14T04:39:54.726Z,38.58
2022-12-14T04:42:28.239Z,34.97
2022-12-14T04:45:01.315Z,37.28
2022-12-14T04:47:33.888Z,34.45
2022-12-14T04:50:07.575Z,34.53
2022-12-14T04:52:43.583Z,37.60
2022-12-14T04:55:38.519Z,37.97
2022-12-14T04:58:13.346Z,36.13
2022-12-14T05:01:06.124Z,40.53
2022-12-14T05:03:41.260Z,38.53
2022-12-14T05:06:20.057Z,36.65
2022-12-14T05:09:16.285Z,38.60
2022-12-14T05:11:54.594Z,35.17
2022-12-14T05:14:34.966Z,37.97
2022-12-14T05:17:08.778Z,36.38
2022-12-14T05:19:37.659Z,38.22
2022-12-14T05:22:07.176Z,37.90
2022-12-14T05:24:35.109Z,36.05
2022-12-14T05:27:01.879Z,34.50
2022-12-14T05:29:28.711Z,39.03
2022-12-14T05:31:55.616Z,37.67
2022-12-14T05:34:23.768Z,35.58
2022-12-14T05:36:50.575Z,41.38
2022-12-14T05:39:17.722Z,43.45
2022-12-14T05:41:44.831Z,40.00
2022-12-14T05:44:11.816Z,41.45
2022-12-14T05:46:38.491Z,40.63
2022-12-14T05:49:05.355Z,43.08
2022-12-14T05:51:32.304Z,39.70
2022-12-14T05:54:00.379Z,44.63
2022-12-14T05:56:27.174Z,50.03
2022-12-14T05:58:53.973Z,41.65
2022-12-14T06:01:20.992Z,44.25
2022-12-14T06:03:48.274Z,41.20
2022-12-14T06:06:16.730Z,43.85
2022-12-14T06:08:45.602Z,47.30
2022-12-14T06:11:19.270Z,42.95
2022-12-14T06:13:46.829Z,45.38
2022-12-14T06:16:15.381Z,49.35
2022-12-14T06:18:53.863Z,50.00
2022-12-14T06:21:22.932Z,48.17
2022-12-14T06:23:51.359Z,48.42
2022-12-14T06:26:18.790Z,50.53
2022-12-14T06:28:45.799Z,45.83
2022-12-14T06:31:20.822Z,51.40
2022-12-14T06:33:48.075Z,48.75
2022-12-14T06:36:22.293Z,54.20
2022-12-14T06:38:50.136Z,52.60
2022-12-14T06:41:19.410Z,52.00
2022-12-14T06:43:49.353Z,52.22
2022-12-14T06:46:19.557Z,48.70
2022-12-14T06:48:51.206Z,49.92
2022-12-14T06:51:18.102Z,47.80
2022-12-14T06:53:44.828Z,52.50
2022-12-14T06:56:17.684Z,54.20
2022-12-14T06:58:44.822Z,59.70
2022-12-14T07:01:24.377Z,56.17
2022-12-14T07:03:54.669Z,51.85
2022-12-14T07:06:25.601Z,48.40
2022-12-14T07:08:56.976Z,53.50
2022-12-14T07:11:24.743Z,53.85
2022-12-14T07:13:51.482Z,48.53
2022-12-14T07:16:22.995Z,52.53
2022-12-14T07:18:50.251Z,52.05
2022-12-14T07:21:19.021Z,46.58
2022-12-14T07:23:47.906Z,55.20
2022-12-14T07:26:23.995Z,55.28
2022-12-14T07:28:51.660Z,53.78
2022-12-14T07:31:26.568Z,51.45
2022-12-14T07:33:55.290Z,54.33
2022-12-14T07:36:23.515Z,51.88
2022-12-14T07:38:51.681Z,55.25
2022-12-14T07:41:23.091Z,57.00
2022-12-14T07:43:50.994Z,49.63
2022-12-14T07:46:22.198Z,53.00
2022-12-14T07:48:51.194Z,49.55
2022-12-14T07:51:20.745Z,48.13
2022-12-14T07:53:48.456Z,57.00
2022-12-14T07:56:17.991Z,49.30
2022-12-14T07:58:45.023Z,50.00
2022-12-14T08:01:29.898Z,51.30
2022-12-14T08:03:59.968Z,49.13
2022-12-14T08:06:28.697Z,51.00
2022-12-14T08:08:56.388Z,54.28
2022-12-14T08:11:24.220Z,47.88
2022-12-14T08:13:58.677Z,50.83
2022-12-14T08:16:26.145Z,54.15
2022-12-14T08:18:58.215Z,54.28
2022-12-14T08:21:25.898Z,56.45
2022-12-14T08:23:54.566Z,51.80
2022-12-14T08:26:22.783Z,58.10
2022-12-14T08:28:49.884Z,56.95
2022-12-14T08:31:19.146Z,52.58
2022-12-14T08:33:46.996Z,54.65
2022-12-14T08:36:16.655Z,52.25
2022-12-14T08:38:44.117Z,47.50
2022-12-14T08:41:13.558Z,54.75
2022-12-14T08:43:41.365Z,58.30
2022-12-14T08:46:09.476Z,53.70
2022-12-14T08:48:36.529Z,51.17
2022-12-14T08:51:09.253Z,51.10
2022-12-14T08:53:37.546Z,49.33
2022-12-14T08:56:10.661Z,51.30
2022-12-14T08:58:39.238Z,46.17
2022-12-14T09:01:08.965Z,49.38
2022-12-14T09:03:36.047Z,43.80
2022-12-14T09:06:07.756Z,49.13
2022-12-14T09:08:35.462Z,49.22
2022-12-14T09:11:03.335Z,44.58
2022-12-14T09:13:30.680Z,48.08
2022-12-14T09:16:03.151Z,45.90
2022-12-14T09:18:30.887Z,42.58
2022-12-14T09:20:58.470Z,43.65
2022-12-14T09:23:27.913Z,39.70
2022-12-14T09:26:11.188Z,39.42
2022-12-14T09:28:40.615Z,42.28
2022-12-14T09:31:15.441Z,41.17
2022-12-14T09:33:42.621Z,37.33
2022-12-14T09:36:16.637Z,37.15
2022-12-14T09:38:50.582Z,38.20
2022-12-14T09:41:36.139Z,40.40
2022-12-14T09:44:25.028Z,41.00
2022-12-14T09:46:54.371Z,41.88
2022-12-14T09:49:31.980Z,37.97
2022-12-14T09:52:02.033Z,38.75
2022-12-14T09:54:35.506Z,40.42
2022-12-14T09:59:42.696Z,38.85
2022-12-14T10:02:50.658Z,41.85
2022-12-14T10:05:48.595Z,36.25
2022-12-14T10:08:27.794Z,34.15
2022-12-14T10:11:06.242Z,37.25
2022-12-14T10:13:58.983Z,39.88
2022-12-14T10:17:03.103Z,37.17
2022-12-14T10:22:16.202Z,37.63
2022-12-14T10:24:44.518Z,38.00
2022-12-14T10:27:20.328Z,33.45
2022-12-14T10:29:58.060Z,33.88
2022-12-14T10:32:41.347Z,35.75
2022-12-14T10:35:19.963Z,32.53
2022-12-14T10:38:05.078Z,32.53
2022-12-14T10:40:34.920Z,33.08
2022-12-14T10:43:27.096Z,32.53
2022-12-14T10:46:01.734Z,30.45
2022-12-14T10:48:47.465Z,33.25
2022-12-14T10:51:38.789Z,29.80
2022-12-14T10:54:20.637Z,37.30
2022-12-14T10:56:50.420Z,33.45
2022-12-14T10:59:23.893Z,27.88
2022-12-14T11:02:05.813Z,28.05
2022-12-14T11:04:57.552Z,27.77
2022-12-14T11:07:39.131Z,29.48
2022-12-14T11:10:30.250Z,30.73
2022-12-14T11:13:04.231Z,28.52
2022-12-14T11:15:47.170Z,26.60
2022-12-14T11:18:19.877Z,30.33
2022-12-14T11:20:53.949Z,31.20
2022-12-14T11:23:25.722Z,30.77
2022-12-14T11:25:59.635Z,30.40
2022-12-14T11:28:50.311Z,32.38
2022-12-14T11:31:46.699Z,31.63
2022-12-14T11:34:39.494Z,31.02
2022-12-14T11:37:31.885Z,31.83
2022-12-14T11:40:05.534Z,31.50
2022-12-14T11:42:33.391Z,32.60
2022-12-14T11:45:26.628Z,30.30
2022-12-14T11:48:15.340Z,31.80
2022-12-14T11:50:44.760Z,27.77
2022-12-14T11:53:14.653Z,28.40
2022-12-14T11:55:56.106Z,27.23
2022-12-14T11:58:37.810Z,28.77
2022-12-14T12:01:26.368Z,34.25
2022-12-14T12:03:58.798Z,30.60
2022-12-14T12:06:28.383Z,31.87
2022-12-14T12:09:00.505Z,28.73
2022-12-14T12:11:34.924Z,30.98
2022-12-14T12:14:06.986Z,29.27
2022-12-14T12:16:35.644Z,28.30
2022-12-14T12:19:11.557Z,29.60
2022-12-14T12:21:41.779Z,27.38
2022-12-14T12:24:20.150Z,30.13
2022-12-14T12:27:00.371Z,32.42
2022-12-14T12:29:36.642Z,32.75
2022-12-14T12:32:18.751Z,32.72
2022-12-14T12:34:52.513Z,31.30
2022-12-14T12:37:31.365Z,31.40
2022-12-14T12:40:10.454Z,31.77
2022-12-14T12:42:42.038Z,31.10
2022-12-14T12:45:25.769Z,31.98
2022-12-14T12:48:30.337Z,28.45
2022-12-14T12:51:07.915Z,40.70
2022-12-14T12:53:39.797Z,30.73
2022-12-14T12:56:12.778Z,30.33
2022-12-14T12:58:40.811Z,31.92
2022-12-14T13:01:35.486Z,29.85
2022-12-14T13:04:10.527Z,31.20
2022-12-14T13:06:59.084Z,34.42
2022-12-14T13:09:44.405Z,31.77
2022-12-14T13:12:27.271Z,31.10
2022-12-14T13:14:57.240Z,31.65
2022-12-14T13:17:41.613Z,32.30
2022-12-14T13:20:24.518Z,32.80
2022-12-14T13:22:51.972Z,32.93
2022-12-14T13:25:27.261Z,33.97
2022-12-14T13:28:21.292Z,32.80
2022-12-14T13:31:16.881Z,35.40
2022-12-14T13:33:58.888Z,33.55
2022-12-14T13:36:37.045Z,31.60
2022-12-14T13:39:22.010Z,29.90
2022-12-14T13:42:09.717Z,33.78
2022-12-14T13:44:57.167Z,32.70
2022-12-14T13:47:35.125Z,29.50
2022-12-14T13:50:34.816Z,29.85
2022-12-14T13:53:01.121Z,28.27
2022-12-14T13:55:36.580Z,34.35
2022-12-14T13:58:34.081Z,31.83
2022-12-14T14:01:09.437Z,30.67
2022-12-14T14:03:36.492Z,33.85
2022-12-14T14:06:12.356Z,30.52
2022-12-14T14:08:50.818Z,30.90
2022-12-14T14:11:40.787Z,31.85
2022-12-14T14:14:25.553Z,30.17
2022-12-14T14:17:08.535Z,33.88
2022-12-14T14:19:41.076Z,32.40
2022-12-14T14:22:23.795Z,35.03
2022-12-14T14:25:09.099Z,31.48
2022-12-14T14:27:40.106Z,35.10
2022-12-14T14:30:28.400Z,27.30
2022-12-14T14:33:07.664Z,31.35
2022-12-14T14:35:42.456Z,32.70
2022-12-14T14:38:31.445Z,33.25
2022-12-14T14:41:18.255Z,31.35
2022-12-14T14:43:57.151Z,32.97
2022-12-14T14:46:34.099Z,28.63
2022-12-14T14:49:01.266Z,29.90
2022-12-14T14:51:30.861Z,30.60
2022-12-14T14:54:37.689Z,29.27
2022-12-14T14:57:03.124Z,31.48
2022-12-14T14:59:40.339Z,34.15
2022-12-14T15:02:32.732Z,28.92
2022-12-14T15:05:24.836Z,33.67
2022-12-14T15:07:48.574Z,29.67
2022-12-14T15:10:30.314Z,33.45
2022-12-14T15:13:23.562Z,27.80
2022-12-14T15:15:53.261Z,30.40
2022-12-14T15:18:20.270Z,28.98
2022-12-14T15:21:07.615Z,31.58
2022-12-14T15:23:43.805Z,31.63
2022-12-14T15:26:21.474Z,34.80
2022-12-14T15:28:54.134Z,30.05
2022-12-14T15:31:30.743Z,35.42
2022-12-14T15:33:58.462Z,30.63
2022-12-14T15:36:30.626Z,34.90
2022-12-14T15:38:58.913Z,36.75
2022-12-14T15:41:29.195Z,34.13
2022-12-14T15:43:59.989Z,32.60
2022-12-14T15:46:33.556Z,31.58
2022-12-14T15:49:03.907Z,33.67
2022-12-14T15:51:38.216Z,34.72
2022-12-14T15:54:07.463Z,32.13
2022-12-14T15:56:36.149Z,37.00
2022-12-14T15:59:07.320Z,34.63
2022-12-14T16:01:39.959Z,42.60
2022-12-14T16:04:19.922Z,33.22
2022-12-14T16:06:56.956Z,34.30
2022-12-14T16:09:28.654Z,33.92
2022-12-14T16:12:05.358Z,29.75
2022-12-14T16:14:54.367Z,32.40
2022-12-14T16:17:26.485Z,32.40
2022-12-14T16:20:03.851Z,40.45
2022-12-14T16:22:32.143Z,39.63
2022-12-14T16:25:21.724Z,37.17
2022-12-14T16:27:51.078Z,35.22
2022-12-14T16:30:24.494Z,36.00
2022-12-14T16:33:13.449Z,36.95
2022-12-14T16:35:40.420Z,39.58
2022-12-14T16:38:11.578Z,38.40
2022-12-14T16:40:41.983Z,35.78
2022-12-14T16:43:26.858Z,38.85
2022-12-14T16:46:05.578Z,37.03
2022-12-14T16:48:34.042Z,33.38
2022-12-14T16:51:32.694Z,34.25
2022-12-14T16:54:21.245Z,33.13
2022-12-14T16:56:49.730Z,36.33
2022-12-14T16:59:34.173Z,36.20
2022-12-14T17:02:01.285Z,35.83
2022-12-14T17:04:36.673Z,35.95
2022-12-14T17:07:04.413Z,33.35
2022-12-14T17:09:36.740Z,34.13
2022-12-14T17:12:13.569Z,38.58
2022-12-14T17:14:47.584Z,35.40
2022-12-14T17:17:38.131Z,35.30
2022-12-14T17:20:13.682Z,33.28
2022-12-14T17:22:41.644Z,34.17
2022-12-14T17:25:10.325Z,39.38
2022-12-14T17:27:37.039Z,37.03
2022-12-14T17:30:08.148Z,39.88
2022-12-14T17:32:35.083Z,34.70
2022-12-14T17:35:03.830Z,35.05
2022-12-14T17:37:36.419Z,33.72
2022-12-14T17:40:04.346Z,34.15
2022-12-14T17:42:31.413Z,35.97
2022-12-14T17:44:59.923Z,39.38
2022-12-14T17:47:26.853Z,36.63
2022-12-14T17:49:53.658Z,39.58
2022-12-14T17:52:32.217Z,38.83
2022-12-14T17:54:59.635Z,47.47
2022-12-14T17:57:27.177Z,43.28
2022-12-14T18:00:12.363Z,39.45
2022-12-14T18:02:40.087Z,40.30
2022-12-14T18:05:19.274Z,35.15
2022-12-14T18:07:46.125Z,40.80
2022-12-14T18:10:18.074Z,42.05
2022-12-14T18:12:45.178Z,38.47
2022-12-14T18:15:25.453Z,42.33
2022-12-14T18:17:52.308Z,42.28
2022-12-14T18:20:22.871Z,42.17
2022-12-14T18:22:50.430Z,44.85
2022-12-14T18:25:26.584Z,46.30
2022-12-14T18:27:53.330Z,40.63
2022-12-14T18:30:20.486Z,43.17
2022-12-14T18:32:47.480Z,39.70
2022-12-14T18:35:23.189Z,44.95
2022-12-14T18:37:51.130Z,49.42
2022-12-14T18:40:23.079Z,41.95
2022-12-14T18:42:49.994Z,38.78
2022-12-14T18:45:30.748Z,40.83
2022-12-14T18:47:59.118Z,40.88
2022-12-14T18:50:26.763Z,41.53
2022-12-14T18:52:55.587Z,43.85
2022-12-14T18:55:30.853Z,43.35
2022-12-14T18:58:00.720Z,39.45
2022-12-14T19:00:32.691Z,37.97
2022-12-14T19:03:03.146Z,37.00
2022-12-14T19:05:31.219Z,36.08
2022-12-14T19:08:00.569Z,32.65
2022-12-14T19:10:32.861Z,38.95
2022-12-14T19:12:59.683Z,44.33
2022-12-14T19:15:29.420Z,41.40
2022-12-14T19:17:56.611Z,40.65
2022-12-14T19:20:25.187Z,41.97
2022-12-14T19:22:52.028Z,39.63
2022-12-14T19:25:20.332Z,41.38
2022-12-14T19:30:34.950Z,41.90
2022-12-14T19:33:01.824Z,43.08
2022-12-14T19:35:28.732Z,34.13
2022-12-14T19:37:55.516Z,41.95
2022-12-14T19:40:22.313Z,34.47
2022-12-14T19:42:49.100Z,39.20
2022-12-14T19:45:16.188Z,32.67
2022-12-14T19:47:44.096Z,39.17
2022-12-14T19:50:15.230Z,36.78
2022-12-14T19:52:42.706Z,34.15
2022-12-14T19:55:10.959Z,35.83
2022-12-14T19:57:39.277Z,35.35
2022-12-14T20:00:10.635Z,35.35
2022-12-14T20:02:38.110Z,40.17
2022-12-14T20:05:06.220Z,36.03
2022-12-14T20:07:33.086Z,35.50
2022-12-14T20:09:59.991Z,37.58
2022-12-14T20:12:26.829Z,35.17
2022-12-14T20:14:53.495Z,40.58
2022-12-14T20:17:20.324Z,39.08
2022-12-14T20:19:47.121Z,38.03
2022-12-14T20:22:15.108Z,39.78
2022-12-14T20:24:42.807Z,40.15
2022-12-14T20:27:09.816Z,40.17
2022-12-14T20:29:37.885Z,37.75
2022-12-14T20:32:04.767Z,42.40
2022-12-14T20:34:33.212Z,35.33
2022-12-14T20:37:00.646Z,39.15
2022-12-14T20:39:27.388Z,37.47
2022-12-14T20:41:54.114Z,39.75
2022-12-14T20:44:20.856Z,36.40
2022-12-14T20:46:47.742Z,40.17
2022-12-14T20:49:19.720Z,40.47
2022-12-14T20:51:47.698Z,38.20
2022-12-14T20:54:18.060Z,36.97
2022-12-14T20:56:49.699Z,36.78
2022-12-14T20:59:16.841Z,36.65
2022-12-14T21:01:51.771Z,39.03
2022-12-14T21:04:22.116Z,38.00
2022-12-14T21:06:48.764Z,42.83
2022-12-14T21:09:15.536Z,39.85
2022-12-14T21:12:02.099Z,37.05
2022-12-14T21:14:34.465Z,39.25
2022-12-14T21:17:02.299Z,42.85
2022-12-14T21:19:29.118Z,36.55
2022-12-14T21:21:56.344Z,38.83
2022-12-14T21:25:00.521Z,39.20
2022-12-14T21:27:17.525Z,39.25
2022-12-14T21:29:44.920Z,35.93
2022-12-14T21:32:11.943Z,38.35
2022-12-14T21:34:41.879Z,36.70
2022-12-14T21:37:10.401Z,38.97
2022-12-14T21:39:37.190Z,39.55
2022-12-14T21:42:15.456Z,39.83
2022-12-14T21:44:45.002Z,42.55
2022-12-14T21:47:14.908Z,40.97
2022-12-14T21:49:43.265Z,38.95
2022-12-14T21:52:15.472Z,38.58
2022-12-14T21:54:42.985Z,40.88
2022-12-14T21:57:36.961Z,39.08
2022-12-14T22:02:41.586Z,41.22
2022-12-14T22:05:09.267Z,39.42
2022-12-14T22:07:36.015Z,37.55
2022-12-14T22:10:02.876Z,40.00
2022-12-14T22:12:29.724Z,39.15
2022-12-14T22:14:56.537Z,40.13
2022-12-14T22:17:23.255Z,40.63
2022-12-14T22:19:51.205Z,41.65
2022-12-14T22:22:17.931Z,37.20
2022-12-14T22:24:47.921Z,41.78
2022-12-14T22:27:15.071Z,42.00
2022-12-14T22:29:41.807Z,38.17
2022-12-14T22:32:10.982Z,43.35
2022-12-14T22:34:37.776Z,39.50
2022-12-14T22:37:04.521Z,42.85
2022-12-14T22:39:31.257Z,37.90
2022-12-14T22:41:57.976Z,44.40
2022-12-14T22:44:24.721Z,38.88
2022-12-14T22:46:51.536Z,39.72
2022-12-14T22:49:19.587Z,41.65
2022-12-14T22:51:46.682Z,42.05
2022-12-14T22:54:24.880Z,40.80
2022-12-14T22:57:09.720Z,39.88
2022-12-14T22:59:43.628Z,39.85
2022-12-14T23:02:10.510Z,40.10
2022-12-14T23:04:38.083Z,39.75
2022-12-14T23:07:05.532Z,41.35
2022-12-14T23:09:50.755Z,40.25
2022-12-14T23:12:36.091Z,40.83
2022-12-14T23:15:21.305Z,42.88
2022-12-14T23:18:06.831Z,40.28
2022-12-14T23:20:52.352Z,38.10
2022-12-14T23:23:37.443Z,40.33
2022-12-14T23:26:23.649Z,36.70
2022-12-14T23:29:08.909Z,40.53
2022-12-14T23:31:54.131Z,42.60
2022-12-14T23:34:39.630Z,42.42
2022-12-14T23:37:25.020Z,41.63
2022-12-14T23:40:10.459Z,43.60
2022-12-14T23:42:55.745Z,48.00
2022-12-14T23:45:41.060Z,42.13
2022-12-14T23:48:26.335Z,39.70
2022-12-14T23:51:11.718Z,41.85
2022-12-14T23:53:57.032Z,41.47
2022-12-14T23:56:42.272Z,39.80
2022-12-14T23:59:31.995Z,38.40
